createdAt,value
2023-02-15T00:46:49.736Z,27.50
2023-02-15T00:49:35.160Z,27.80
2023-02-15T00:52:20.483Z,26.27
2023-02-15T00:55:06.524Z,24.67
2023-02-15T00:57:52.390Z,24.60
2023-02-15T01:46:39.141Z,20.20
2023-02-15T01:49:27.275Z,21.95
2023-02-15T01:52:15.721Z,21.13
2023-02-15T01:55:03.604Z,21.10
2023-02-15T01:57:49.850Z,20.60
2023-02-15T02:46:39.682Z,18.38
2023-02-15T02:49:32.878Z,17.50
2023-02-15T02:52:39.303Z,18.13
2023-02-15T02:55:36.620Z,17.23
2023-02-15T02:58:32.365Z,17.25
2023-02-15T03:45:34.494Z,16.92
2023-02-15T03:48:21.529Z,14.68
2023-02-15T03:51:32.203Z,16.25
2023-02-15T03:54:43.590Z,16.08
2023-02-15T03:57:48.923Z,16.23
2023-02-15T04:46:25.278Z,15.33
2023-02-15T04:49:10.726Z,14.02
2023-02-15T04:51:56.432Z,13.43
2023-02-15T04:54:41.861Z,13.05
2023-02-15T04:57:27.361Z,14.05
2023-02-15T05:45:59.347Z,13.70
2023-02-15T05:48:45.170Z,13.98
2023-02-15T05:51:30.562Z,13.75
2023-02-15T05:54:15.831Z,12.43
2023-02-15T05:57:01.296Z,13.80
2023-02-15T05:59:46.703Z,12.17
2023-02-15T06:02:36.877Z,14.88
2023-02-15T06:05:23.042Z,13.88
2023-02-15T06:08:08.337Z,13.52
2023-02-15T06:10:53.888Z,12.25
2023-02-15T06:13:39.316Z,13.47
2023-02-15T06:16:24.848Z,14.60
2023-02-15T06:19:10.464Z,14.80
2023-02-15T06:21:56.071Z,13.27
2023-02-15T06:24:43.512Z,12.13
2023-02-15T06:27:29.133Z,11.63
2023-02-15T06:30:15.005Z,13.32
2023-02-15T06:33:00.628Z,10.73
2023-02-15T06:35:47.238Z,11.90
2023-02-15T06:38:32.955Z,12.32
2023-02-15T06:41:18.690Z,11.73
2023-02-15T06:44:04.212Z,10.98
2023-02-15T06:46:50.082Z,15.07
2023-02-15T06:49:35.489Z,12.00
2023-02-15T06:52:20.972Z,12.05
2023-02-15T06:55:07.381Z,11.80
2023-02-15T06:57:52.530Z,11.75
2023-02-15T07:00:38.051Z,15.73
2023-02-15T07:03:23.496Z,14.45
2023-02-15T07:06:09.795Z,15.80
2023-02-15T07:08:55.444Z,13.40
2023-02-15T07:11:59.387Z,15.45
2023-02-15T07:14:44.632Z,13.68
2023-02-15T07:17:38.062Z,13.80
2023-02-15T07:20:24.421Z,14.25
2023-02-15T07:23:09.802Z,13.90
2023-02-15T07:25:59.837Z,17.15
2023-02-15T07:28:45.478Z,13.65
2023-02-15T07:31:30.737Z,16.38
2023-02-15T07:34:16.830Z,14.27
2023-02-15T07:37:02.272Z,13.40
2023-02-15T07:39:47.610Z,12.15
2023-02-15T07:42:33.154Z,13.77
2023-02-15T07:45:18.584Z,11.80
2023-02-15T07:48:05.308Z,13.55
2023-02-15T07:50:51.257Z,13.00
2023-02-15T07:53:37.858Z,13.50
2023-02-15T07:56:23.291Z,12.85
2023-02-15T07:59:09.180Z,14.82
2023-02-15T08:01:57.190Z,12.07
2023-02-15T08:04:42.777Z,11.30
2023-02-15T08:07:28.066Z,13.88
2023-02-15T08:10:33.705Z,12.23
2023-02-15T08:13:19.570Z,13.10
2023-02-15T08:16:05.929Z,12.48
2023-02-15T08:18:53.258Z,11.90
2023-02-15T08:21:41.130Z,11.35
2023-02-15T08:24:28.898Z,13.48
2023-02-15T08:27:14.315Z,12.57
2023-02-15T08:29:59.579Z,11.25
2023-02-15T08:32:44.721Z,9.67
2023-02-15T08:35:30.011Z,11.57
2023-02-15T08:38:15.665Z,12.43
2023-02-15T08:41:22.629Z,11.48
2023-02-15T08:44:10.568Z,11.35
2023-02-15T08:46:58.391Z,14.07
2023-02-15T08:49:43.517Z,11.88
2023-02-15T08:52:28.836Z,15.80
2023-02-15T08:55:14.328Z,10.80
2023-02-15T08:57:59.889Z,10.85
2023-02-15T09:00:47.401Z,10.67
2023-02-15T09:03:33.185Z,11.80
2023-02-15T09:06:19.096Z,11.02
2023-02-15T09:09:04.919Z,11.35
2023-02-15T09:11:56.800Z,11.27
2023-02-15T09:14:44.716Z,10.33
2023-02-15T09:17:29.940Z,12.25
2023-02-15T09:20:15.550Z,10.38
2023-02-15T09:23:01.051Z,10.18
2023-02-15T09:25:46.294Z,10.45
2023-02-15T09:28:33.612Z,9.93
2023-02-15T09:31:21.697Z,9.43
2023-02-15T09:34:07.305Z,9.23
2023-02-15T09:36:52.748Z,10.63
2023-02-15T09:39:42.116Z,11.70
2023-02-15T09:42:39.821Z,9.90
2023-02-15T09:45:41.165Z,13.30
2023-02-15T09:48:39.368Z,11.50
2023-02-15T09:52:01.137Z,11.50
2023-02-15T09:55:30.611Z,10.27
2023-02-15T09:58:37.459Z,10.47
2023-02-15T10:01:56.371Z,8.85
2023-02-15T10:04:45.398Z,10.13
2023-02-15T10:07:49.682Z,10.63
2023-02-15T10:10:50.145Z,10.32
2023-02-15T10:13:54.729Z,9.63
2023-02-15T10:16:50.926Z,9.95
2023-02-15T10:19:54.491Z,11.52
2023-02-15T10:23:01.488Z,11.48
2023-02-15T10:26:08.906Z,9.65
2023-02-15T10:29:17.249Z,9.80
2023-02-15T10:32:23.947Z,9.00
2023-02-15T10:35:09.322Z,10.90
2023-02-15T10:38:06.782Z,8.77
2023-02-15T10:41:00.735Z,8.70
2023-02-15T10:44:07.539Z,9.87
2023-02-15T10:47:26.463Z,14.02
2023-02-15T10:50:26.536Z,9.70
2023-02-15T10:53:19.963Z,10.00
2023-02-15T10:56:23.179Z,9.63
2023-02-15T10:59:30.497Z,9.60
2023-02-15T11:02:35.172Z,8.75
2023-02-15T11:05:32.604Z,9.65
2023-02-15T11:08:19.294Z,9.38
2023-02-15T11:11:13.357Z,9.18
2023-02-15T11:14:04.007Z,9.83
2023-02-15T11:17:00.448Z,10.45
2023-02-15T11:19:58.319Z,10.05
2023-02-15T11:22:43.850Z,9.85
2023-02-15T11:25:35.273Z,8.93
2023-02-15T11:28:26.052Z,9.30
2023-02-15T11:31:21.579Z,8.43
2023-02-15T11:34:21.736Z,8.85
2023-02-15T11:37:15.487Z,8.85
2023-02-15T11:40:04.321Z,8.35
2023-02-15T11:42:52.993Z,8.40
2023-02-15T11:45:42.322Z,8.52
2023-02-15T11:48:32.006Z,9.18
2023-02-15T11:51:23.406Z,9.02
2023-02-15T11:54:09.816Z,8.77
2023-02-15T11:57:00.016Z,9.57
2023-02-15T12:00:13.192Z,8.80
2023-02-15T12:02:59.437Z,8.88
2023-02-15T12:05:48.066Z,9.63
2023-02-15T12:08:45.546Z,8.25
2023-02-15T12:11:36.310Z,10.10
2023-02-15T12:14:25.388Z,9.82
2023-02-15T12:17:14.591Z,8.93
2023-02-15T12:20:08.246Z,9.48
2023-02-15T12:23:03.241Z,8.57
2023-02-15T12:25:57.557Z,8.77
2023-02-15T12:28:45.467Z,9.07
2023-02-15T12:31:48.586Z,9.38
2023-02-15T12:34:40.667Z,8.80
2023-02-15T12:37:29.705Z,8.77
2023-02-15T12:40:49.326Z,9.00
2023-02-15T12:43:38.668Z,8.40
2023-02-15T12:46:27.236Z,8.35
2023-02-15T12:49:22.109Z,9.00
2023-02-15T12:52:26.135Z,8.88
2023-02-15T12:55:28.777Z,10.53
2023-02-15T12:58:21.578Z,9.02
2023-02-15T13:01:09.956Z,8.40
2023-02-15T13:04:07.568Z,9.35
2023-02-15T13:06:56.867Z,9.05
2023-02-15T13:09:42.137Z,7.97
2023-02-15T13:12:35.072Z,8.73
2023-02-15T13:15:41.923Z,8.27
2023-02-15T13:18:35.295Z,8.65
2023-02-15T13:21:26.048Z,8.85
2023-02-15T13:24:29.123Z,8.40
2023-02-15T13:27:21.573Z,8.82
2023-02-15T13:30:30.257Z,8.55
2023-02-15T13:33:37.250Z,8.82
2023-02-15T13:36:53.926Z,8.82
2023-02-15T13:39:50.082Z,8.27
2023-02-15T13:42:55.430Z,8.10
2023-02-15T13:46:00.957Z,8.20
2023-02-15T13:49:04.664Z,9.23
2023-02-15T13:52:07.776Z,7.65
2023-02-15T13:55:02.025Z,8.50
2023-02-15T13:58:03.222Z,7.50
2023-02-15T14:00:48.657Z,7.72
2023-02-15T14:03:59.069Z,7.72
2023-02-15T14:07:06.132Z,7.72
2023-02-15T14:10:00.803Z,7.47
2023-02-15T14:13:08.582Z,7.93
2023-02-15T14:16:04.929Z,8.68
2023-02-15T14:19:00.667Z,7.28
2023-02-15T14:22:03.495Z,7.45
2023-02-15T14:25:16.112Z,8.23
2023-02-15T14:28:28.968Z,7.97
2023-02-15T14:31:16.786Z,7.43
2023-02-15T14:34:02.117Z,6.90
2023-02-15T14:36:48.481Z,7.88
2023-02-15T14:40:15.412Z,7.67
2023-02-15T14:43:24.439Z,8.50
2023-02-15T14:46:40.747Z,7.50
2023-02-15T14:49:26.275Z,7.40
2023-02-15T14:52:13.361Z,8.20
2023-02-15T14:54:59.994Z,7.47
2023-02-15T14:57:58.241Z,7.85
2023-02-15T15:00:43.961Z,7.43
2023-02-15T15:03:29.468Z,6.90
2023-02-15T15:06:30.149Z,8.25
2023-02-15T15:09:24.001Z,7.40
2023-02-15T15:12:36.020Z,8.48
2023-02-15T15:15:21.855Z,8.38
2023-02-15T15:18:31.170Z,7.78
2023-02-15T15:21:47.615Z,8.20
2023-02-15T15:24:39.751Z,9.33
2023-02-15T15:27:41.570Z,9.15
2023-02-15T15:30:27.322Z,8.43
2023-02-15T15:33:39.079Z,7.22
2023-02-15T15:36:54.833Z,7.97
2023-02-15T15:39:59.057Z,7.00
2023-02-15T15:43:03.056Z,8.13
2023-02-15T15:46:07.180Z,7.47
2023-02-15T15:48:53.531Z,8.32
2023-02-15T15:51:43.807Z,6.78
2023-02-15T15:54:29.252Z,7.93
2023-02-15T15:57:34.790Z,7.43
2023-02-15T16:00:45.622Z,6.95
2023-02-15T16:03:31.180Z,7.07
2023-02-15T16:06:39.193Z,6.70
2023-02-15T16:09:27.906Z,7.03
2023-02-15T16:12:18.567Z,6.80
2023-02-15T16:15:21.859Z,6.63
2023-02-15T16:18:07.337Z,6.63
2023-02-15T16:21:02.844Z,7.55
2023-02-15T16:24:05.075Z,9.37
2023-02-15T16:27:01.830Z,6.80
2023-02-15T16:29:47.338Z,7.90
2023-02-15T16:32:36.779Z,13.18
2023-02-15T16:35:23.394Z,10.52
2023-02-15T16:38:12.462Z,6.57
2023-02-15T16:40:58.707Z,6.65
2023-02-15T16:43:49.326Z,8.32
2023-02-15T16:46:39.015Z,7.75
2023-02-15T16:49:28.272Z,8.48
2023-02-15T16:52:20.174Z,8.47
2023-02-15T16:55:07.487Z,9.85
2023-02-15T16:57:58.230Z,7.63
2023-02-15T17:00:44.388Z,12.43
2023-02-15T17:03:30.423Z,10.07
2023-02-15T17:06:30.665Z,10.83
2023-02-15T17:09:21.888Z,17.02
2023-02-15T17:12:10.741Z,33.15
2023-02-15T17:14:56.389Z,36.78
2023-02-15T17:17:45.520Z,48.35
2023-02-15T17:20:34.993Z,45.10
2023-02-15T17:23:43.382Z,29.35
2023-02-15T17:26:35.500Z,23.83
2023-02-15T17:29:44.606Z,21.35
2023-02-15T17:32:37.845Z,23.50
2023-02-15T17:35:29.750Z,23.77
2023-02-15T17:38:21.307Z,22.70
2023-02-15T17:41:06.897Z,23.77
2023-02-15T17:43:52.287Z,22.13
2023-02-15T17:46:38.376Z,20.52
2023-02-15T17:49:29.393Z,19.27
2023-02-15T17:52:15.457Z,19.67
2023-02-15T17:55:31.906Z,20.20
2023-02-15T17:58:19.865Z,18.80
2023-02-15T18:01:30.761Z,18.35
2023-02-15T18:04:34.703Z,20.20
2023-02-15T18:07:38.671Z,20.10
2023-02-15T18:10:42.887Z,17.67
2023-02-15T18:13:28.068Z,18.50
2023-02-15T18:16:22.140Z,16.20
2023-02-15T18:19:14.212Z,18.83
2023-02-15T18:21:59.587Z,16.88
2023-02-15T18:24:45.652Z,16.65
2023-02-15T18:27:31.463Z,15.48
2023-02-15T18:30:20.302Z,17.67
2023-02-15T18:33:05.934Z,14.70
2023-02-15T18:35:51.496Z,16.10
2023-02-15T18:38:37.036Z,15.60
2023-02-15T18:41:23.293Z,14.88
2023-02-15T18:44:14.516Z,15.05
2023-02-15T18:46:59.826Z,12.97
2023-02-15T18:49:45.196Z,14.85
2023-02-15T18:52:35.094Z,13.90
2023-02-15T18:55:26.298Z,15.18
2023-02-15T18:58:18.636Z,14.45
2023-02-15T19:01:05.176Z,13.37
2023-02-15T19:03:51.769Z,12.27
2023-02-15T19:06:40.164Z,13.55
2023-02-15T19:09:26.200Z,15.77
2023-02-15T19:12:13.638Z,14.85
2023-02-15T19:14:59.600Z,13.80
2023-02-15T19:17:44.979Z,14.40
2023-02-15T19:20:39.971Z,13.27
2023-02-15T19:23:25.408Z,12.60
2023-02-15T19:26:13.093Z,13.52
2023-02-15T19:29:03.897Z,14.00
2023-02-15T19:31:49.571Z,13.25
2023-02-15T19:34:34.842Z,12.55
2023-02-15T19:37:28.938Z,12.95
2023-02-15T19:40:24.092Z,13.75
2023-02-15T19:43:18.756Z,12.40
2023-02-15T19:46:04.514Z,14.57
2023-02-15T19:48:51.319Z,13.43
2023-02-15T19:51:39.370Z,17.38
2023-02-15T19:54:33.403Z,12.82
2023-02-15T19:57:19.391Z,12.87
2023-02-15T20:00:22.258Z,15.73
2023-02-15T20:03:07.923Z,16.95
2023-02-15T20:05:53.628Z,23.60
2023-02-15T20:08:39.067Z,27.45
2023-02-15T20:11:24.329Z,21.57
2023-02-15T20:14:14.254Z,24.73
2023-02-15T20:16:59.856Z,27.30
2023-02-15T20:19:46.287Z,19.67
2023-02-15T20:22:32.685Z,19.38
2023-02-15T20:25:36.944Z,21.97
2023-02-15T20:28:25.585Z,22.85
2023-02-15T20:31:17.305Z,19.50
2023-02-15T20:34:03.645Z,23.50
2023-02-15T20:36:49.316Z,28.20
2023-02-15T20:39:37.278Z,21.17
2023-02-15T20:42:23.065Z,21.30
2023-02-15T20:45:19.970Z,21.25
2023-02-15T20:48:05.601Z,22.77
2023-02-15T20:50:53.190Z,22.38
2023-02-15T20:53:38.972Z,22.30
2023-02-15T20:56:25.173Z,26.88
2023-02-15T20:59:32.832Z,26.63
2023-02-15T21:02:23.525Z,26.35
2023-02-15T21:05:28.615Z,26.27
2023-02-15T21:08:18.092Z,26.27
2023-02-15T21:11:04.742Z,24.02
2023-02-15T21:13:53.659Z,28.58
2023-02-15T21:16:39.342Z,26.80
2023-02-15T21:19:25.254Z,26.20
2023-02-15T21:22:18.856Z,24.77
2023-02-15T21:25:06.135Z,24.55
2023-02-15T21:27:57.767Z,25.52
2023-02-15T21:30:44.221Z,26.73
2023-02-15T21:33:30.137Z,27.67
2023-02-15T21:36:18.952Z,26.63
2023-02-15T21:39:05.747Z,24.67
2023-02-15T21:42:11.437Z,25.30
2023-02-15T21:45:16.361Z,24.02
2023-02-15T21:48:02.289Z,23.35
2023-02-15T21:51:08.464Z,28.40
2023-02-15T21:53:54.278Z,23.15
2023-02-15T21:56:42.153Z,22.73
2023-02-15T21:59:28.084Z,23.05
2023-02-15T22:02:29.635Z,23.30
2023-02-15T22:05:25.089Z,23.70
2023-02-15T22:08:15.334Z,22.30
2023-02-15T22:11:01.846Z,23.08
2023-02-15T22:13:49.366Z,22.75
2023-02-15T22:16:35.692Z,23.02
2023-02-15T22:19:21.267Z,26.07
2023-02-15T22:22:07.096Z,24.73
2023-02-15T22:24:53.189Z,26.15
2023-02-15T22:27:41.123Z,34.15
2023-02-15T22:30:29.499Z,34.20
2023-02-15T22:33:24.948Z,33.03
2023-02-15T22:36:26.358Z,39.30
2023-02-15T22:39:12.371Z,24.48
2023-02-15T22:41:58.174Z,26.15
2023-02-15T22:44:44.194Z,28.55
2023-02-15T22:47:32.209Z,25.30
2023-02-15T22:50:29.268Z,26.08
2023-02-15T22:53:15.122Z,24.27
2023-02-15T22:56:06.484Z,25.45
2023-02-15T22:58:58.612Z,24.17
2023-02-15T23:01:44.790Z,32.90
2023-02-15T23:04:30.531Z,24.63
2023-02-15T23:07:19.008Z,20.63
2023-02-15T23:10:05.104Z,21.88
2023-02-15T23:13:11.125Z,20.23
2023-02-15T23:15:58.850Z,18.73
2023-02-15T23:18:46.255Z,21.95
2023-02-15T23:21:33.514Z,18.83
2023-02-15T23:24:26.315Z,25.05
2023-02-15T23:27:35.861Z,19.35
2023-02-15T23:30:24.907Z,20.40
2023-02-15T23:33:11.913Z,16.95
2023-02-15T23:35:57.641Z,21.50
2023-02-15T23:38:43.077Z,17.08
2023-02-15T23:41:30.318Z,19.00
2023-02-15T23:44:15.668Z,18.07
2023-02-15T23:47:01.088Z,20.05
2023-02-15T23:49:48.060Z,19.15
2023-02-15T23:52:33.252Z,19.60
2023-02-15T23:55:19.116Z,16.13
2023-02-15T23:58:09.966Z,18.10
